sensor_id;sensor_type;location;lat;lon;timestamp;P1;durP1;ratioP1;P2;durP2;ratioP2
71236;SDS011;58984;51.960;5.582;2024-01-30T00:00:37;21.77;;;14.13;;
71236;SDS011;58984;51.960;5.582;2024-01-30T00:03:03;18.35;;;13.60;;
71236;SDS011;58984;51.960;5.582;2024-01-30T00:05:29;19.98;;;13.40;;
71236;SDS011;58984;51.960;5.582;2024-01-30T00:07:54;19.02;;;14.07;;
71236;SDS011;58984;51.960;5.582;2024-01-30T00:10:20;20.10;;;14.00;;
71236;SDS011;58984;51.960;5.582;2024-01-30T00:12:46;21.60;;;14.27;;
71236;SDS011;58984;51.960;5.582;2024-01-30T00:15:12;19.55;;;14.02;;
71236;SDS011;58984;51.960;5.582;2024-01-30T00:17:37;24.38;;;14.57;;
71236;SDS011;58984;51.960;5.582;2024-01-30T00:20:03;23.33;;;13.95;;
71236;SDS011;58984;51.960;5.582;2024-01-30T00:22:34;18.83;;;13.80;;
71236;SDS011;58984;51.960;5.582;2024-01-30T00:24:59;18.65;;;13.63;;
71236;SDS011;58984;51.960;5.582;2024-01-30T00:27:26;18.90;;;13.60;;
71236;SDS011;58984;51.960;5.582;2024-01-30T00:29:52;17.63;;;13.93;;
71236;SDS011;58984;51.960;5.582;2024-01-30T00:32:18;17.92;;;13.20;;
71236;SDS011;58984;51.960;5.582;2024-01-30T00:34:44;18.25;;;13.70;;
71236;SDS011;58984;51.960;5.582;2024-01-30T00:37:10;18.95;;;13.02;;
71236;SDS011;58984;51.960;5.582;2024-01-30T00:39:35;19.58;;;13.25;;
71236;SDS011;58984;51.960;5.582;2024-01-30T00:42:01;22.70;;;13.52;;
71236;SDS011;58984;51.960;5.582;2024-01-30T00:44:27;19.25;;;13.35;;
71236;SDS011;58984;51.960;5.582;2024-01-30T00:46:53;17.48;;;12.48;;
71236;SDS011;58984;51.960;5.582;2024-01-30T00:49:18;19.45;;;13.48;;
71236;SDS011;58984;51.960;5.582;2024-01-30T00:51:44;20.02;;;12.73;;
71236;SDS011;58984;51.960;5.582;2024-01-30T00:54:11;17.58;;;13.07;;
71236;SDS011;58984;51.960;5.582;2024-01-30T00:56:36;18.83;;;13.40;;
71236;SDS011;58984;51.960;5.582;2024-01-30T00:59:02;20.65;;;13.25;;
71236;SDS011;58984;51.960;5.582;2024-01-30T01:01:28;17.98;;;12.68;;
71236;SDS011;58984;51.960;5.582;2024-01-30T01:03:53;21.83;;;13.00;;
71236;SDS011;58984;51.960;5.582;2024-01-30T01:06:19;21.35;;;12.80;;
71236;SDS011;58984;51.960;5.582;2024-01-30T01:08:45;21.77;;;13.25;;
71236;SDS011;58984;51.960;5.582;2024-01-30T01:11:10;19.08;;;12.48;;
71236;SDS011;58984;51.960;5.582;2024-01-30T01:13:36;16.55;;;12.68;;
71236;SDS011;58984;51.960;5.582;2024-01-30T01:16:02;19.40;;;12.68;;
71236;SDS011;58984;51.960;5.582;2024-01-30T01:18:28;18.15;;;12.25;;
71236;SDS011;58984;51.960;5.582;2024-01-30T01:20:54;18.38;;;11.93;;
71236;SDS011;58984;51.960;5.582;2024-01-30T01:23:20;15.75;;;12.23;;
71236;SDS011;58984;51.960;5.582;2024-01-30T01:25:45;19.00;;;11.77;;
71236;SDS011;58984;51.960;5.582;2024-01-30T01:28:11;21.08;;;13.38;;
71236;SDS011;58984;51.960;5.582;2024-01-30T01:30:37;18.77;;;12.02;;
71236;SDS011;58984;51.960;5.582;2024-01-30T01:33:02;16.90;;;12.75;;
71236;SDS011;58984;51.960;5.582;2024-01-30T01:35:28;20.25;;;12.48;;
71236;SDS011;58984;51.960;5.582;2024-01-30T01:37:54;15.90;;;12.02;;
71236;SDS011;58984;51.960;5.582;2024-01-30T01:40:23;21.80;;;13.05;;
71236;SDS011;58984;51.960;5.582;2024-01-30T01:42:50;17.17;;;12.15;;
71236;SDS011;58984;51.960;5.582;2024-01-30T01:45:20;21.20;;;12.80;;
71236;SDS011;58984;51.960;5.582;2024-01-30T01:47:47;16.50;;;11.95;;
71236;SDS011;58984;51.960;5.582;2024-01-30T01:50:18;18.35;;;12.38;;
71236;SDS011;58984;51.960;5.582;2024-01-30T01:52:48;18.15;;;12.75;;
71236;SDS011;58984;51.960;5.582;2024-01-30T01:55:15;16.85;;;11.80;;
71236;SDS011;58984;51.960;5.582;2024-01-30T01:57:43;18.30;;;12.48;;
71236;SDS011;58984;51.960;5.582;2024-01-30T02:00:10;18.45;;;11.95;;
71236;SDS011;58984;51.960;5.582;2024-01-30T02:02:37;14.55;;;11.40;;
71236;SDS011;58984;51.960;5.582;2024-01-30T02:05:04;18.02;;;12.52;;
71236;SDS011;58984;51.960;5.582;2024-01-30T02:07:30;17.30;;;11.88;;
71236;SDS011;58984;51.960;5.582;2024-01-30T02:09:56;18.00;;;12.80;;
71236;SDS011;58984;51.960;5.582;2024-01-30T02:12:22;20.83;;;12.30;;
71236;SDS011;58984;51.960;5.582;2024-01-30T02:14:48;15.20;;;11.38;;
71236;SDS011;58984;51.960;5.582;2024-01-30T02:17:15;18.85;;;12.38;;
71236;SDS011;58984;51.960;5.582;2024-01-30T02:19:41;17.20;;;12.80;;
71236;SDS011;58984;51.960;5.582;2024-01-30T02:22:07;15.75;;;11.57;;
71236;SDS011;58984;51.960;5.582;2024-01-30T02:24:32;14.93;;;11.93;;
71236;SDS011;58984;51.960;5.582;2024-01-30T02:26:58;15.10;;;11.68;;
71236;SDS011;58984;51.960;5.582;2024-01-30T02:29:24;18.88;;;12.27;;
71236;SDS011;58984;51.960;5.582;2024-01-30T02:31:50;19.05;;;12.23;;
71236;SDS011;58984;51.960;5.582;2024-01-30T02:34:15;17.58;;;12.10;;
71236;SDS011;58984;51.960;5.582;2024-01-30T02:36:44;18.65;;;12.40;;
71236;SDS011;58984;51.960;5.582;2024-01-30T02:39:10;16.90;;;12.30;;
71236;SDS011;58984;51.960;5.582;2024-01-30T02:41:36;20.15;;;11.85;;
71236;SDS011;58984;51.960;5.582;2024-01-30T02:44:02;17.83;;;11.70;;
71236;SDS011;58984;51.960;5.582;2024-01-30T02:46:28;18.40;;;12.15;;
71236;SDS011;58984;51.960;5.582;2024-01-30T02:48:54;16.63;;;11.88;;
71236;SDS011;58984;51.960;5.582;2024-01-30T02:51:20;17.60;;;12.32;;
71236;SDS011;58984;51.960;5.582;2024-01-30T02:53:46;18.52;;;11.98;;
71236;SDS011;58984;51.960;5.582;2024-01-30T02:56:11;19.30;;;12.55;;
71236;SDS011;58984;51.960;5.582;2024-01-30T02:58:38;16.73;;;12.45;;
71236;SDS011;58984;51.960;5.582;2024-01-30T03:01:05;20.27;;;12.52;;
71236;SDS011;58984;51.960;5.582;2024-01-30T03:03:31;16.88;;;11.90;;
71236;SDS011;58984;51.960;5.582;2024-01-30T03:05:56;20.10;;;13.15;;
71236;SDS011;58984;51.960;5.582;2024-01-30T03:08:22;17.10;;;12.38;;
71236;SDS011;58984;51.960;5.582;2024-01-30T03:10:48;18.77;;;12.30;;
71236;SDS011;58984;51.960;5.582;2024-01-30T03:13:14;20.40;;;13.13;;
71236;SDS011;58984;51.960;5.582;2024-01-30T03:15:39;20.13;;;12.77;;
71236;SDS011;58984;51.960;5.582;2024-01-30T03:18:05;20.27;;;12.68;;
71236;SDS011;58984;51.960;5.582;2024-01-30T03:20:31;18.02;;;12.25;;
71236;SDS011;58984;51.960;5.582;2024-01-30T03:22:56;18.75;;;11.75;;
71236;SDS011;58984;51.960;5.582;2024-01-30T03:25:24;19.75;;;12.60;;
71236;SDS011;58984;51.960;5.582;2024-01-30T03:27:50;16.88;;;12.20;;
71236;SDS011;58984;51.960;5.582;2024-01-30T03:30:16;20.15;;;12.13;;
71236;SDS011;58984;51.960;5.582;2024-01-30T03:32:42;18.02;;;12.45;;
71236;SDS011;58984;51.960;5.582;2024-01-30T03:35:09;20.17;;;12.38;;
71236;SDS011;58984;51.960;5.582;2024-01-30T03:37:34;16.52;;;12.02;;
71236;SDS011;58984;51.960;5.582;2024-01-30T03:40:00;19.67;;;12.35;;
71236;SDS011;58984;51.960;5.582;2024-01-30T03:42:27;19.15;;;13.60;;
71236;SDS011;58984;51.960;5.582;2024-01-30T03:44:53;17.17;;;11.77;;
71236;SDS011;58984;51.960;5.582;2024-01-30T03:47:20;18.52;;;12.52;;
71236;SDS011;58984;51.960;5.582;2024-01-30T03:49:46;16.75;;;11.82;;
71236;SDS011;58984;51.960;5.582;2024-01-30T03:52:11;18.98;;;12.00;;
71236;SDS011;58984;51.960;5.582;2024-01-30T03:54:37;16.20;;;12.35;;
71236;SDS011;58984;51.960;5.582;2024-01-30T03:57:03;16.73;;;12.13;;
71236;SDS011;58984;51.960;5.582;2024-01-30T03:59:29;16.08;;;12.35;;
71236;SDS011;58984;51.960;5.582;2024-01-30T04:01:54;20.23;;;11.98;;
71236;SDS011;58984;51.960;5.582;2024-01-30T04:04:20;19.35;;;13.20;;
71236;SDS011;58984;51.960;5.582;2024-01-30T04:06:46;18.42;;;12.30;;
71236;SDS011;58984;51.960;5.582;2024-01-30T04:09:12;16.73;;;12.27;;
71236;SDS011;58984;51.960;5.582;2024-01-30T04:11:38;18.30;;;12.23;;
71236;SDS011;58984;51.960;5.582;2024-01-30T04:14:04;16.42;;;11.85;;
71236;SDS011;58984;51.960;5.582;2024-01-30T04:16:30;15.65;;;11.63;;
71236;SDS011;58984;51.960;5.582;2024-01-30T04:18:56;20.80;;;12.07;;
71236;SDS011;58984;51.960;5.582;2024-01-30T04:21:23;18.45;;;11.77;;
71236;SDS011;58984;51.960;5.582;2024-01-30T04:23:48;16.92;;;12.38;;
71236;SDS011;58984;51.960;5.582;2024-01-30T04:26:15;17.17;;;12.52;;
71236;SDS011;58984;51.960;5.582;2024-01-30T04:28:41;26.10;;;12.65;;
71236;SDS011;58984;51.960;5.582;2024-01-30T04:31:09;18.08;;;11.60;;
71236;SDS011;58984;51.960;5.582;2024-01-30T04:33:34;18.65;;;12.07;;
71236;SDS011;58984;51.960;5.582;2024-01-30T04:36:00;17.15;;;12.43;;
71236;SDS011;58984;51.960;5.582;2024-01-30T04:38:26;17.95;;;11.85;;
71236;SDS011;58984;51.960;5.582;2024-01-30T04:40:52;17.27;;;11.80;;
71236;SDS011;58984;51.960;5.582;2024-01-30T04:43:17;17.80;;;11.60;;
71236;SDS011;58984;51.960;5.582;2024-01-30T04:45:44;19.10;;;12.27;;
71236;SDS011;58984;51.960;5.582;2024-01-30T04:48:09;17.33;;;11.43;;
71236;SDS011;58984;51.960;5.582;2024-01-30T04:50:35;16.27;;;12.00;;
71236;SDS011;58984;51.960;5.582;2024-01-30T04:53:01;19.17;;;11.68;;
71236;SDS011;58984;51.960;5.582;2024-01-30T04:55:27;16.52;;;12.05;;
71236;SDS011;58984;51.960;5.582;2024-01-30T04:57:52;15.57;;;11.05;;
71236;SDS011;58984;51.960;5.582;2024-01-30T05:00:18;17.48;;;10.93;;
71236;SDS011;58984;51.960;5.582;2024-01-30T05:02:44;20.38;;;12.05;;
71236;SDS011;58984;51.960;5.582;2024-01-30T05:05:10;17.73;;;11.40;;
71236;SDS011;58984;51.960;5.582;2024-01-30T05:07:36;17.98;;;11.45;;
71236;SDS011;58984;51.960;5.582;2024-01-30T05:10:02;17.13;;;11.82;;
71236;SDS011;58984;51.960;5.582;2024-01-30T05:12:28;16.05;;;11.20;;
71236;SDS011;58984;51.960;5.582;2024-01-30T05:14:54;17.63;;;11.90;;
71236;SDS011;58984;51.960;5.582;2024-01-30T05:17:19;16.58;;;11.85;;
71236;SDS011;58984;51.960;5.582;2024-01-30T05:19:45;17.52;;;12.45;;
71236;SDS011;58984;51.960;5.582;2024-01-30T05:22:11;20.02;;;12.05;;
71236;SDS011;58984;51.960;5.582;2024-01-30T05:24:40;15.80;;;10.77;;
71236;SDS011;58984;51.960;5.582;2024-01-30T05:27:07;16.27;;;11.35;;
71236;SDS011;58984;51.960;5.582;2024-01-30T05:29:33;18.38;;;11.48;;
71236;SDS011;58984;51.960;5.582;2024-01-30T05:31:58;18.52;;;11.60;;
71236;SDS011;58984;51.960;5.582;2024-01-30T05:34:24;19.98;;;11.68;;
71236;SDS011;58984;51.960;5.582;2024-01-30T05:36:50;17.80;;;11.07;;
71236;SDS011;58984;51.960;5.582;2024-01-30T05:39:15;15.80;;;11.00;;
71236;SDS011;58984;51.960;5.582;2024-01-30T05:41:41;17.10;;;11.48;;
71236;SDS011;58984;51.960;5.582;2024-01-30T05:44:07;13.85;;;11.00;;
71236;SDS011;58984;51.960;5.582;2024-01-30T05:46:33;15.63;;;11.40;;
71236;SDS011;58984;51.960;5.582;2024-01-30T05:49:00;16.02;;;10.68;;
71236;SDS011;58984;51.960;5.582;2024-01-30T05:51:26;15.40;;;11.65;;
71236;SDS011;58984;51.960;5.582;2024-01-30T05:53:53;16.52;;;10.98;;
71236;SDS011;58984;51.960;5.582;2024-01-30T05:56:18;18.45;;;11.75;;
71236;SDS011;58984;51.960;5.582;2024-01-30T05:58:44;17.27;;;11.38;;
71236;SDS011;58984;51.960;5.582;2024-01-30T06:01:10;14.50;;;10.93;;
71236;SDS011;58984;51.960;5.582;2024-01-30T06:03:36;13.02;;;10.30;;
71236;SDS011;58984;51.960;5.582;2024-01-30T06:06:02;15.55;;;11.77;;
71236;SDS011;58984;51.960;5.582;2024-01-30T06:08:27;14.48;;;10.75;;
71236;SDS011;58984;51.960;5.582;2024-01-30T06:10:53;16.35;;;10.48;;
71236;SDS011;58984;51.960;5.582;2024-01-30T06:13:19;17.55;;;10.90;;
71236;SDS011;58984;51.960;5.582;2024-01-30T06:15:45;16.20;;;10.45;;
71236;SDS011;58984;51.960;5.582;2024-01-30T06:18:11;16.90;;;10.57;;
71236;SDS011;58984;51.960;5.582;2024-01-30T06:20:36;17.58;;;10.77;;
71236;SDS011;58984;51.960;5.582;2024-01-30T06:23:02;13.02;;;10.40;;
71236;SDS011;58984;51.960;5.582;2024-01-30T06:25:28;12.63;;;10.05;;
71236;SDS011;58984;51.960;5.582;2024-01-30T06:27:54;19.23;;;10.52;;
71236;SDS011;58984;51.960;5.582;2024-01-30T06:30:19;14.60;;;11.38;;
71236;SDS011;58984;51.960;5.582;2024-01-30T06:32:45;18.52;;;11.00;;
71236;SDS011;58984;51.960;5.582;2024-01-30T06:35:10;14.10;;;10.65;;
71236;SDS011;58984;51.960;5.582;2024-01-30T06:37:36;15.93;;;9.50;;
71236;SDS011;58984;51.960;5.582;2024-01-30T06:40:02;14.70;;;10.30;;
71236;SDS011;58984;51.960;5.582;2024-01-30T06:42:29;15.38;;;10.43;;
71236;SDS011;58984;51.960;5.582;2024-01-30T06:44:55;17.73;;;11.63;;
71236;SDS011;58984;51.960;5.582;2024-01-30T06:47:21;17.05;;;10.77;;
71236;SDS011;58984;51.960;5.582;2024-01-30T06:49:47;14.38;;;10.70;;
71236;SDS011;58984;51.960;5.582;2024-01-30T06:52:12;14.68;;;10.18;;
71236;SDS011;58984;51.960;5.582;2024-01-30T06:54:39;15.00;;;10.25;;
71236;SDS011;58984;51.960;5.582;2024-01-30T06:57:04;16.40;;;10.30;;
71236;SDS011;58984;51.960;5.582;2024-01-30T06:59:34;16.05;;;10.50;;
71236;SDS011;58984;51.960;5.582;2024-01-30T07:02:00;12.45;;;9.82;;
71236;SDS011;58984;51.960;5.582;2024-01-30T07:04:25;14.27;;;10.20;;
71236;SDS011;58984;51.960;5.582;2024-01-30T07:06:51;14.20;;;9.38;;
71236;SDS011;58984;51.960;5.582;2024-01-30T07:09:18;13.80;;;10.45;;
71236;SDS011;58984;51.960;5.582;2024-01-30T07:11:44;14.70;;;9.75;;
71236;SDS011;58984;51.960;5.582;2024-01-30T07:14:10;13.73;;;10.35;;
71236;SDS011;58984;51.960;5.582;2024-01-30T07:16:35;14.65;;;10.13;;
71236;SDS011;58984;51.960;5.582;2024-01-30T07:19:01;16.52;;;10.50;;
71236;SDS011;58984;51.960;5.582;2024-01-30T07:21:27;13.80;;;10.98;;
71236;SDS011;58984;51.960;5.582;2024-01-30T07:23:56;14.25;;;10.02;;
71236;SDS011;58984;51.960;5.582;2024-01-30T07:26:22;17.05;;;10.23;;
71236;SDS011;58984;51.960;5.582;2024-01-30T07:28:47;15.10;;;9.68;;
71236;SDS011;58984;51.960;5.582;2024-01-30T07:31:13;16.95;;;10.55;;
71236;SDS011;58984;51.960;5.582;2024-01-30T07:33:39;16.15;;;10.52;;
71236;SDS011;58984;51.960;5.582;2024-01-30T07:36:05;16.15;;;10.38;;
71236;SDS011;58984;51.960;5.582;2024-01-30T07:38:33;16.83;;;10.68;;
71236;SDS011;58984;51.960;5.582;2024-01-30T07:40:59;12.88;;;10.00;;
71236;SDS011;58984;51.960;5.582;2024-01-30T07:43:25;16.05;;;10.30;;
71236;SDS011;58984;51.960;5.582;2024-01-30T07:45:51;18.60;;;10.48;;
71236;SDS011;58984;51.960;5.582;2024-01-30T07:48:16;17.55;;;10.35;;
71236;SDS011;58984;51.960;5.582;2024-01-30T07:50:42;17.35;;;10.80;;
71236;SDS011;58984;51.960;5.582;2024-01-30T07:53:08;13.75;;;9.55;;
71236;SDS011;58984;51.960;5.582;2024-01-30T07:55:33;14.85;;;10.23;;
71236;SDS011;58984;51.960;5.582;2024-01-30T07:57:59;16.23;;;10.63;;
71236;SDS011;58984;51.960;5.582;2024-01-30T08:00:26;16.13;;;10.88;;
71236;SDS011;58984;51.960;5.582;2024-01-30T08:02:54;14.65;;;9.68;;
71236;SDS011;58984;51.960;5.582;2024-01-30T08:05:20;14.25;;;10.38;;
71236;SDS011;58984;51.960;5.582;2024-01-30T08:07:48;14.32;;;10.27;;
71236;SDS011;58984;51.960;5.582;2024-01-30T08:10:14;17.58;;;10.88;;
71236;SDS011;58984;51.960;5.582;2024-01-30T08:12:40;12.73;;;9.15;;
71236;SDS011;58984;51.960;5.582;2024-01-30T08:15:06;16.25;;;10.80;;
71236;SDS011;58984;51.960;5.582;2024-01-30T08:17:32;15.45;;;9.80;;
71236;SDS011;58984;51.960;5.582;2024-01-30T08:19:58;17.30;;;10.43;;
71236;SDS011;58984;51.960;5.582;2024-01-30T08:22:24;17.50;;;10.52;;
71236;SDS011;58984;51.960;5.582;2024-01-30T08:24:50;14.65;;;10.57;;
71236;SDS011;58984;51.960;5.582;2024-01-30T08:27:16;15.27;;;10.25;;
71236;SDS011;58984;51.960;5.582;2024-01-30T08:29:41;13.07;;;10.43;;
71236;SDS011;58984;51.960;5.582;2024-01-30T08:32:07;13.13;;;10.18;;
71236;SDS011;58984;51.960;5.582;2024-01-30T08:34:33;15.50;;;10.27;;
71236;SDS011;58984;51.960;5.582;2024-01-30T08:36:59;15.32;;;10.25;;
71236;SDS011;58984;51.960;5.582;2024-01-30T08:39:24;16.77;;;11.15;;
71236;SDS011;58984;51.960;5.582;2024-01-30T08:41:50;19.55;;;11.68;;
71236;SDS011;58984;51.960;5.582;2024-01-30T08:44:16;15.30;;;10.27;;
71236;SDS011;58984;51.960;5.582;2024-01-30T08:46:43;15.70;;;10.02;;
71236;SDS011;58984;51.960;5.582;2024-01-30T08:49:11;14.35;;;9.68;;
71236;SDS011;58984;51.960;5.582;2024-01-30T08:51:38;14.90;;;10.65;;
71236;SDS011;58984;51.960;5.582;2024-01-30T08:54:04;14.35;;;9.82;;
71236;SDS011;58984;51.960;5.582;2024-01-30T08:56:30;17.95;;;11.05;;
71236;SDS011;58984;51.960;5.582;2024-01-30T08:58:56;15.48;;;10.95;;
71236;SDS011;58984;51.960;5.582;2024-01-30T09:01:21;19.02;;;11.18;;
71236;SDS011;58984;51.960;5.582;2024-01-30T09:03:47;13.88;;;10.50;;
71236;SDS011;58984;51.960;5.582;2024-01-30T09:06:13;16.45;;;10.90;;
71236;SDS011;58984;51.960;5.582;2024-01-30T09:08:38;13.95;;;9.95;;
71236;SDS011;58984;51.960;5.582;2024-01-30T09:11:14;15.30;;;11.07;;
71236;SDS011;58984;51.960;5.582;2024-01-30T09:13:40;17.27;;;11.43;;
71236;SDS011;58984;51.960;5.582;2024-01-30T09:16:06;15.30;;;10.45;;
71236;SDS011;58984;51.960;5.582;2024-01-30T09:18:32;15.95;;;11.23;;
71236;SDS011;58984;51.960;5.582;2024-01-30T09:20:58;16.90;;;11.35;;
71236;SDS011;58984;51.960;5.582;2024-01-30T09:23:24;15.48;;;10.88;;
71236;SDS011;58984;51.960;5.582;2024-01-30T09:25:52;15.85;;;11.25;;
71236;SDS011;58984;51.960;5.582;2024-01-30T09:28:17;13.10;;;10.45;;
71236;SDS011;58984;51.960;5.582;2024-01-30T09:30:43;17.02;;;10.77;;
71236;SDS011;58984;51.960;5.582;2024-01-30T09:33:09;15.90;;;10.93;;
71236;SDS011;58984;51.960;5.582;2024-01-30T09:35:35;18.13;;;11.15;;
71236;SDS011;58984;51.960;5.582;2024-01-30T09:38:01;16.90;;;10.73;;
71236;SDS011;58984;51.960;5.582;2024-01-30T09:40:27;21.55;;;11.30;;
71236;SDS011;58984;51.960;5.582;2024-01-30T09:42:53;15.23;;;11.02;;
71236;SDS011;58984;51.960;5.582;2024-01-30T09:45:21;16.65;;;11.15;;
71236;SDS011;58984;51.960;5.582;2024-01-30T09:47:49;14.23;;;10.38;;
71236;SDS011;58984;51.960;5.582;2024-01-30T09:50:15;15.00;;;10.82;;
71236;SDS011;58984;51.960;5.582;2024-01-30T09:52:42;15.15;;;10.45;;
71236;SDS011;58984;51.960;5.582;2024-01-30T09:55:12;18.10;;;11.35;;
71236;SDS011;58984;51.960;5.582;2024-01-30T09:57:38;17.33;;;11.13;;
71236;SDS011;58984;51.960;5.582;2024-01-30T10:00:05;15.88;;;10.68;;
71236;SDS011;58984;51.960;5.582;2024-01-30T10:02:34;16.75;;;11.00;;
71236;SDS011;58984;51.960;5.582;2024-01-30T10:05:01;15.93;;;11.10;;
71236;SDS011;58984;51.960;5.582;2024-01-30T10:07:27;16.80;;;11.38;;
71236;SDS011;58984;51.960;5.582;2024-01-30T10:09:53;18.27;;;11.02;;
71236;SDS011;58984;51.960;5.582;2024-01-30T10:12:19;16.77;;;10.27;;
71236;SDS011;58984;51.960;5.582;2024-01-30T10:14:44;16.23;;;10.88;;
71236;SDS011;58984;51.960;5.582;2024-01-30T10:17:10;16.40;;;10.10;;
71236;SDS011;58984;51.960;5.582;2024-01-30T10:19:38;14.15;;;9.77;;
71236;SDS011;58984;51.960;5.582;2024-01-30T10:22:05;16.77;;;11.32;;
71236;SDS011;58984;51.960;5.582;2024-01-30T10:24:31;15.82;;;10.52;;
71236;SDS011;58984;51.960;5.582;2024-01-30T10:26:58;15.90;;;10.68;;
71236;SDS011;58984;51.960;5.582;2024-01-30T10:29:24;15.30;;;10.45;;
71236;SDS011;58984;51.960;5.582;2024-01-30T10:32:02;14.98;;;10.05;;
71236;SDS011;58984;51.960;5.582;2024-01-30T10:34:29;17.50;;;10.65;;
71236;SDS011;58984;51.960;5.582;2024-01-30T10:37:08;14.73;;;10.52;;
71236;SDS011;58984;51.960;5.582;2024-01-30T10:39:40;13.63;;;10.10;;
71236;SDS011;58984;51.960;5.582;2024-01-30T10:42:15;15.38;;;10.07;;
71236;SDS011;58984;51.960;5.582;2024-01-30T10:47:28;19.00;;;10.65;;
71236;SDS011;58984;51.960;5.582;2024-01-30T10:49:55;20.80;;;10.40;;
71236;SDS011;58984;51.960;5.582;2024-01-30T10:52:22;23.33;;;10.52;;
71236;SDS011;58984;51.960;5.582;2024-01-30T10:54:53;15.75;;;9.93;;
71236;SDS011;58984;51.960;5.582;2024-01-30T10:57:20;17.25;;;10.00;;
71236;SDS011;58984;51.960;5.582;2024-01-30T10:59:48;16.92;;;9.93;;
71236;SDS011;58984;51.960;5.582;2024-01-30T11:02:15;14.90;;;10.43;;
71236;SDS011;58984;51.960;5.582;2024-01-30T11:04:41;15.05;;;10.32;;
71236;SDS011;58984;51.960;5.582;2024-01-30T11:07:25;14.48;;;10.63;;
71236;SDS011;58984;51.960;5.582;2024-01-30T11:12:26;16.35;;;9.88;;
71236;SDS011;58984;51.960;5.582;2024-01-30T11:15:08;18.70;;;10.48;;
71236;SDS011;58984;51.960;5.582;2024-01-30T11:20:10;15.63;;;10.15;;
71236;SDS011;58984;51.960;5.582;2024-01-30T11:22:56;14.75;;;10.43;;
71236;SDS011;58984;51.960;5.582;2024-01-30T11:25:23;15.95;;;10.55;;
71236;SDS011;58984;51.960;5.582;2024-01-30T11:27:55;16.60;;;10.35;;
71236;SDS011;58984;51.960;5.582;2024-01-30T11:33:06;17.92;;;11.65;;
71236;SDS011;58984;51.960;5.582;2024-01-30T11:35:37;18.35;;;11.20;;
71236;SDS011;58984;51.960;5.582;2024-01-30T11:38:05;19.48;;;11.15;;
71236;SDS011;58984;51.960;5.582;2024-01-30T11:40:31;17.45;;;10.98;;
71236;SDS011;58984;51.960;5.582;2024-01-30T11:42:59;17.58;;;10.82;;
71236;SDS011;58984;51.960;5.582;2024-01-30T11:45:26;15.55;;;10.68;;
71236;SDS011;58984;51.960;5.582;2024-01-30T11:47:52;15.18;;;10.90;;
71236;SDS011;58984;51.960;5.582;2024-01-30T11:50:18;16.40;;;10.68;;
71236;SDS011;58984;51.960;5.582;2024-01-30T11:52:44;16.30;;;10.45;;
71236;SDS011;58984;51.960;5.582;2024-01-30T11:55:10;17.73;;;10.15;;
71236;SDS011;58984;51.960;5.582;2024-01-30T11:57:36;19.00;;;10.55;;
71236;SDS011;58984;51.960;5.582;2024-01-30T12:00:05;16.77;;;9.50;;
71236;SDS011;58984;51.960;5.582;2024-01-30T12:02:41;16.08;;;9.95;;
71236;SDS011;58984;51.960;5.582;2024-01-30T12:05:08;15.32;;;9.18;;
71236;SDS011;58984;51.960;5.582;2024-01-30T12:07:36;12.88;;;8.70;;
71236;SDS011;58984;51.960;5.582;2024-01-30T12:10:02;12.55;;;8.65;;
71236;SDS011;58984;51.960;5.582;2024-01-30T12:12:30;9.57;;;7.68;;
71236;SDS011;58984;51.960;5.582;2024-01-30T12:14:56;11.40;;;7.63;;
71236;SDS011;58984;51.960;5.582;2024-01-30T12:22:37;10.95;;;6.78;;
71236;SDS011;58984;51.960;5.582;2024-01-30T12:25:04;9.15;;;6.32;;
71236;SDS011;58984;51.960;5.582;2024-01-30T12:27:33;9.65;;;5.38;;
71236;SDS011;58984;51.960;5.582;2024-01-30T12:29:58;8.90;;;6.00;;
71236;SDS011;58984;51.960;5.582;2024-01-30T12:32:24;10.95;;;5.45;;
71236;SDS011;58984;51.960;5.582;2024-01-30T12:34:50;9.10;;;5.25;;
71236;SDS011;58984;51.960;5.582;2024-01-30T12:37:19;5.50;;;4.47;;
71236;SDS011;58984;51.960;5.582;2024-01-30T12:39:47;5.75;;;4.10;;
71236;SDS011;58984;51.960;5.582;2024-01-30T12:42:14;7.78;;;4.10;;
71236;SDS011;58984;51.960;5.582;2024-01-30T12:44:40;6.78;;;3.95;;
71236;SDS011;58984;51.960;5.582;2024-01-30T12:47:08;5.80;;;3.90;;
71236;SDS011;58984;51.960;5.582;2024-01-30T12:49:34;6.35;;;3.20;;
71236;SDS011;58984;51.960;5.582;2024-01-30T12:51:59;5.90;;;3.40;;
71236;SDS011;58984;51.960;5.582;2024-01-30T12:54:25;5.20;;;2.83;;
71236;SDS011;58984;51.960;5.582;2024-01-30T12:56:51;5.35;;;3.03;;
71236;SDS011;58984;51.960;5.582;2024-01-30T12:59:17;2.63;;;2.40;;
71236;SDS011;58984;51.960;5.582;2024-01-30T13:01:42;5.13;;;2.95;;
71236;SDS011;58984;51.960;5.582;2024-01-30T13:04:08;4.18;;;2.53;;
71236;SDS011;58984;51.960;5.582;2024-01-30T13:06:34;3.92;;;2.65;;
71236;SDS011;58984;51.960;5.582;2024-01-30T13:09:00;6.43;;;2.72;;
71236;SDS011;58984;51.960;5.582;2024-01-30T13:11:25;5.65;;;2.30;;
71236;SDS011;58984;51.960;5.582;2024-01-30T13:13:51;3.13;;;2.40;;
71236;SDS011;58984;51.960;5.582;2024-01-30T13:16:17;7.70;;;2.97;;
71236;SDS011;58984;51.960;5.582;2024-01-30T13:18:43;4.97;;;2.72;;
71236;SDS011;58984;51.960;5.582;2024-01-30T13:21:09;8.85;;;3.88;;
71236;SDS011;58984;51.960;5.582;2024-01-30T13:23:35;7.85;;;3.35;;
71236;SDS011;58984;51.960;5.582;2024-01-30T13:26:00;9.88;;;3.80;;
71236;SDS011;58984;51.960;5.582;2024-01-30T13:28:27;6.10;;;3.63;;
71236;SDS011;58984;51.960;5.582;2024-01-30T13:30:53;7.68;;;3.63;;
71236;SDS011;58984;51.960;5.582;2024-01-30T13:33:19;7.95;;;4.55;;
71236;SDS011;58984;51.960;5.582;2024-01-30T13:35:44;6.90;;;4.68;;
71236;SDS011;58984;51.960;5.582;2024-01-30T13:38:10;6.72;;;4.53;;
71236;SDS011;58984;51.960;5.582;2024-01-30T13:40:36;8.32;;;4.65;;
71236;SDS011;58984;51.960;5.582;2024-01-30T13:43:02;8.32;;;4.63;;
71236;SDS011;58984;51.960;5.582;2024-01-30T13:45:27;13.18;;;5.30;;
71236;SDS011;58984;51.960;5.582;2024-01-30T13:47:53;7.55;;;4.70;;
71236;SDS011;58984;51.960;5.582;2024-01-30T13:50:19;9.95;;;5.20;;
71236;SDS011;58984;51.960;5.582;2024-01-30T13:52:45;7.32;;;4.78;;
71236;SDS011;58984;51.960;5.582;2024-01-30T13:55:11;8.00;;;4.70;;
71236;SDS011;58984;51.960;5.582;2024-01-30T13:57:36;9.35;;;4.50;;
71236;SDS011;58984;51.960;5.582;2024-01-30T14:00:03;9.10;;;5.35;;
71236;SDS011;58984;51.960;5.582;2024-01-30T14:02:32;6.30;;;4.18;;
71236;SDS011;58984;51.960;5.582;2024-01-30T14:04:58;9.32;;;4.22;;
71236;SDS011;58984;51.960;5.582;2024-01-30T14:07:24;7.60;;;4.30;;
71236;SDS011;58984;51.960;5.582;2024-01-30T14:09:49;7.18;;;4.07;;
71236;SDS011;58984;51.960;5.582;2024-01-30T14:12:15;6.40;;;3.70;;
71236;SDS011;58984;51.960;5.582;2024-01-30T14:14:41;8.63;;;3.90;;
71236;SDS011;58984;51.960;5.582;2024-01-30T14:17:07;7.55;;;3.95;;
71236;SDS011;58984;51.960;5.582;2024-01-30T14:19:33;5.97;;;3.47;;
71236;SDS011;58984;51.960;5.582;2024-01-30T14:21:59;7.20;;;3.60;;
71236;SDS011;58984;51.960;5.582;2024-01-30T14:24:25;7.43;;;3.83;;
71236;SDS011;58984;51.960;5.582;2024-01-30T14:26:51;5.85;;;3.78;;
71236;SDS011;58984;51.960;5.582;2024-01-30T14:29:17;9.38;;;4.25;;
71236;SDS011;58984;51.960;5.582;2024-01-30T14:31:43;5.68;;;3.75;;
71236;SDS011;58984;51.960;5.582;2024-01-30T14:34:08;6.75;;;3.90;;
71236;SDS011;58984;51.960;5.582;2024-01-30T14:36:36;8.45;;;4.43;;